Terminal Aerodrome Forecast
Issued by NWS Buffalo, NY

Home | Current Version | Previous Version | Text Only | Print | Product List | Glossary On
Versions: 1 2 3 4 5 6 7 8 9 10 11 12 13 14 15 16 17 18 19 20 21 22 23 24 25 26 27 28
000
FTUS41 KBUF 291700
TAFART
TAF
KART 291740Z 2918/3018 23012KT P6SM SCT030
     FM291900 22014KT P6SM SCT200
     FM292300 16008KT P6SM SCT200
     FM300300 18014G21KT P6SM BKN150
     FM300700 20016G26KT 2SM -SN OVC040
     FM300900 20018G26KT 5SM -SHSNRA OVC040
     FM301200 24020G28KT P6SM VCSH OVC015=

USA.gov is the U.S. government's official web portal to all federal, state and local government web resources and services.